createdAt,value
2023-01-20T00:01:49.025Z,99899.84
2023-01-20T00:04:20.521Z,99903.39
2023-01-20T00:06:49.198Z,99906.65
2023-01-20T00:09:18.678Z,99906.55
2023-01-20T00:11:47.327Z,99913.89
2023-01-20T00:14:15.979Z,99917.41
2023-01-20T00:16:44.608Z,99917.09
2023-01-20T00:19:14.762Z,99914.11
2023-01-20T00:21:43.579Z,99910.41
2023-01-20T00:24:12.267Z,99909.23
2023-01-20T00:26:40.948Z,99911.19
2023-01-20T00:29:10.109Z,99912.92
2023-01-20T00:31:38.975Z,99909.33
2023-01-20T00:34:07.723Z,99911.21
2023-01-20T00:36:36.769Z,99912.48
2023-01-20T00:39:06.210Z,99916.86
2023-01-20T00:41:34.808Z,99916.14
2023-01-20T00:44:03.297Z,99920.32
2023-01-20T00:46:31.838Z,99926.39
2023-01-20T00:49:00.353Z,99928.53
2023-01-20T00:51:28.949Z,99931.45
2023-01-20T00:53:57.371Z,99934.69
2023-01-20T00:56:26.682Z,99933.65
2023-01-20T00:58:58.041Z,99933.98
2023-01-20T01:01:26.717Z,99937.95
2023-01-20T01:03:55.129Z,99939.95
2023-01-20T01:06:24.024Z,99942.13
2023-01-20T01:08:53.327Z,99945.45
2023-01-20T01:11:21.882Z,99946.09
2023-01-20T01:13:50.287Z,99948.27
2023-01-20T01:16:18.980Z,99946.77
2023-01-20T01:18:47.476Z,99943.47
2023-01-20T01:21:17.533Z,99945.59
2023-01-20T01:23:46.129Z,99948.88
2023-01-20T01:26:15.208Z,99954.48
2023-01-20T01:28:43.808Z,99956.16
2023-01-20T01:31:12.384Z,99959.02
2023-01-20T01:33:41.030Z,99965.73
2023-01-20T01:36:14.057Z,99972.92
2023-01-20T01:38:43.588Z,99978.96
2023-01-20T01:41:14.252Z,99981.73
2023-01-20T01:44:10.568Z,99978.89
2023-01-20T01:46:40.671Z,99974.07
2023-01-20T01:49:24.954Z,99978.98
2023-01-20T01:52:03.542Z,99985.42
2023-01-20T01:54:37.428Z,99980.58
2023-01-20T01:57:08.228Z,99981.32
2023-01-20T01:59:38.497Z,99981.99
2023-01-20T02:02:07.046Z,99979.22
2023-01-20T02:04:35.633Z,99984.23
2023-01-20T02:07:10.598Z,99985.51
2023-01-20T02:09:39.497Z,99992.12
2023-01-20T02:12:17.862Z,99991.48
2023-01-20T02:14:51.276Z,99996.18
2023-01-20T02:17:56.144Z,99995.99
2023-01-20T02:20:53.481Z,100001.48
2023-01-20T02:23:59.869Z,100003.88
2023-01-20T02:26:46.572Z,100015.20
2023-01-20T02:29:47.060Z,100020.27
2023-01-20T02:32:30.674Z,100022.98
2023-01-20T02:35:15.210Z,100024.83
2023-01-20T02:38:02.317Z,100021.02
2023-01-20T02:40:41.637Z,100020.70
2023-01-20T02:43:38.970Z,100021.57
2023-01-20T02:46:33.385Z,100021.55
2023-01-20T02:49:15.193Z,100021.09
2023-01-20T02:52:02.596Z,100022.58
2023-01-20T02:54:34.133Z,100025.60
2023-01-20T02:57:07.262Z,100025.87
2023-01-20T02:59:41.789Z,100024.59
2023-01-20T03:02:15.951Z,100027.52
2023-01-20T03:05:04.113Z,100026.43
2023-01-20T03:07:36.368Z,100029.81
2023-01-20T03:10:10.188Z,100031.17
2023-01-20T03:13:03.329Z,100033.38
2023-01-20T03:15:59.576Z,100036.52
2023-01-20T03:18:34.846Z,100035.52
2023-01-20T03:21:05.685Z,100041.48
2023-01-20T03:23:38.279Z,100044.58
2023-01-20T03:26:10.315Z,100047.46
2023-01-20T03:28:39.306Z,100043.73
2023-01-20T03:31:18.122Z,100044.92
2023-01-20T03:33:48.732Z,100046.50
2023-01-20T03:36:20.979Z,100046.86
2023-01-20T03:38:49.920Z,100046.27
2023-01-20T03:41:46.034Z,100048.92
2023-01-20T03:44:22.481Z,100046.80
2023-01-20T03:46:54.029Z,100050.45
2023-01-20T03:50:04.026Z,100055.90
2023-01-20T03:52:47.191Z,100058.48
2023-01-20T03:55:24.898Z,100068.98
2023-01-20T03:58:06.706Z,100073.89
2023-01-20T04:00:38.723Z,100077.52
2023-01-20T04:03:12.712Z,100081.81
2023-01-20T04:05:43.550Z,100085.67
2023-01-20T04:08:14.954Z,100092.27
2023-01-20T04:10:47.389Z,100095.14
2023-01-20T04:13:16.571Z,100099.11
2023-01-20T04:15:46.566Z,100107.48
2023-01-20T04:18:22.828Z,100108.14
2023-01-20T04:20:58.285Z,100114.90
2023-01-20T04:23:33.130Z,100112.33
2023-01-20T04:26:01.800Z,100109.27
2023-01-20T04:28:30.435Z,100112.88
2023-01-20T04:30:59.092Z,100114.86
2023-01-20T04:33:27.780Z,100117.88
2023-01-20T04:35:56.239Z,100116.04
2023-01-20T04:38:24.777Z,100124.11
2023-01-20T04:40:53.406Z,100125.73
2023-01-20T04:43:21.906Z,100128.58
2023-01-20T04:45:50.463Z,100131.84
2023-01-20T04:48:18.932Z,100123.20
2023-01-20T04:50:47.512Z,100123.02
2023-01-20T04:53:19.483Z,100127.20
2023-01-20T04:55:48.130Z,100128.61
2023-01-20T04:58:16.571Z,100123.48
2023-01-20T05:00:45.223Z,100124.14
2023-01-20T05:03:13.879Z,100128.88
2023-01-20T05:05:42.535Z,100127.42
2023-01-20T05:08:11.019Z,100135.25
2023-01-20T05:10:39.482Z,100141.66
2023-01-20T05:13:07.927Z,100145.32
2023-01-20T05:15:36.443Z,100148.56
2023-01-20T05:18:04.951Z,100150.34
2023-01-20T05:20:33.407Z,100149.95
2023-01-20T05:23:02.327Z,100160.05
2023-01-20T05:25:30.776Z,100159.48
2023-01-20T05:28:00.888Z,100161.79
2023-01-20T05:30:29.385Z,100164.73
2023-01-20T05:32:57.919Z,100173.64
2023-01-20T05:35:26.487Z,100174.24
2023-01-20T05:37:56.040Z,100174.21
2023-01-20T05:40:24.610Z,100174.88
2023-01-20T05:42:53.045Z,100175.69
2023-01-20T05:45:21.568Z,100179.41
2023-01-20T05:47:55.509Z,100185.64
2023-01-20T05:50:25.901Z,100186.11
2023-01-20T05:52:54.493Z,100195.14
2023-01-20T05:55:23.098Z,100197.45
2023-01-20T05:57:51.588Z,100201.73
2023-01-20T06:00:20.541Z,100205.10
2023-01-20T06:02:48.941Z,100209.48
2023-01-20T06:05:18.084Z,100206.84
2023-01-20T06:07:46.963Z,100213.73
2023-01-20T06:10:16.994Z,100213.52
2023-01-20T06:12:53.325Z,100218.77
2023-01-20T06:15:24.177Z,100226.13
2023-01-20T06:17:55.228Z,100227.29
2023-01-20T06:20:23.878Z,100224.73
2023-01-20T06:22:56.237Z,100229.04
2023-01-20T06:25:24.725Z,100232.37
2023-01-20T06:27:53.148Z,100232.16
2023-01-20T06:30:21.791Z,100234.23
2023-01-20T06:32:50.242Z,100240.73
2023-01-20T06:35:18.767Z,100241.80
2023-01-20T06:37:47.491Z,100243.80
2023-01-20T06:40:17.285Z,100248.29
2023-01-20T06:42:45.681Z,100254.02
2023-01-20T06:45:14.412Z,100255.98
2023-01-20T06:47:43.034Z,100259.41
2023-01-20T06:50:11.657Z,100266.59
2023-01-20T06:52:40.042Z,100268.89
2023-01-20T06:55:08.777Z,100271.52
2023-01-20T06:57:37.216Z,100274.23
2023-01-20T07:00:06.858Z,100279.55
2023-01-20T07:02:35.521Z,100273.99
2023-01-20T07:05:08.328Z,100279.60
2023-01-20T07:07:36.932Z,100282.20
2023-01-20T07:10:06.656Z,100284.79
2023-01-20T07:12:35.108Z,100286.82
2023-01-20T07:15:03.975Z,100290.71
2023-01-20T07:17:32.507Z,100291.27
2023-01-20T07:20:01.191Z,100305.16
2023-01-20T07:22:29.692Z,100316.11
2023-01-20T07:24:58.159Z,100318.98
2023-01-20T07:27:26.712Z,100318.70
2023-01-20T07:29:55.199Z,100323.05
2023-01-20T07:32:23.870Z,100324.45
2023-01-20T07:34:52.303Z,100326.92
2023-01-20T07:37:20.749Z,100331.20
2023-01-20T07:39:49.220Z,100328.51
2023-01-20T07:42:17.644Z,100335.66
2023-01-20T07:44:46.182Z,100334.96
2023-01-20T07:47:14.592Z,100336.86
2023-01-20T07:49:43.031Z,100341.45
2023-01-20T07:52:11.682Z,100342.09
2023-01-20T07:54:40.145Z,100339.20
2023-01-20T07:57:09.556Z,100337.83
2023-01-20T07:59:38.222Z,100342.23
2023-01-20T08:02:06.710Z,100349.93
2023-01-20T08:04:35.279Z,100349.10
2023-01-20T08:07:03.966Z,100340.59
2023-01-20T08:09:32.438Z,100339.08
2023-01-20T08:12:02.497Z,100338.34
2023-01-20T08:14:31.015Z,100339.35
2023-01-20T08:17:00.579Z,100337.66
2023-01-20T08:19:30.230Z,100341.08
2023-01-20T08:21:58.796Z,100342.63
2023-01-20T08:24:27.405Z,100347.34
2023-01-20T08:26:55.921Z,100355.16
2023-01-20T08:29:24.471Z,100355.89
2023-01-20T08:31:53.145Z,100359.21
2023-01-20T08:34:23.536Z,100369.96
2023-01-20T08:36:54.395Z,100367.04
2023-01-20T08:39:23.537Z,100376.39
2023-01-20T08:41:52.343Z,100374.38
2023-01-20T08:44:21.576Z,100378.20
2023-01-20T08:46:52.885Z,100382.27
2023-01-20T08:49:23.683Z,100391.17
2023-01-20T08:51:52.420Z,100395.48
2023-01-20T08:54:22.334Z,100398.91
2023-01-20T08:56:52.723Z,100401.55
2023-01-20T08:59:22.886Z,100412.83
2023-01-20T09:01:51.436Z,100423.01
2023-01-20T09:04:20.036Z,100423.98
2023-01-20T09:06:50.588Z,100434.36
2023-01-20T09:09:21.619Z,100436.95
2023-01-20T09:11:53.137Z,100439.52
2023-01-20T09:14:24.821Z,100442.45
2023-01-20T09:16:53.534Z,100445.16
2023-01-20T09:19:22.327Z,100447.02
2023-01-20T09:21:50.793Z,100457.35
2023-01-20T09:24:19.204Z,100457.77
2023-01-20T09:26:49.432Z,100453.89
2023-01-20T09:29:20.999Z,100457.48
2023-01-20T09:31:58.582Z,100457.71
2023-01-20T09:34:29.769Z,100461.27
2023-01-20T09:37:19.977Z,100459.09
2023-01-20T09:40:07.552Z,100460.19
2023-01-20T09:42:54.687Z,100457.70
2023-01-20T09:45:35.759Z,100461.42
2023-01-20T09:48:51.642Z,100464.84
2023-01-20T09:51:51.591Z,100471.77
2023-01-20T09:54:29.361Z,100475.33
2023-01-20T09:57:01.115Z,100475.05
2023-01-20T09:59:55.830Z,100472.48
2023-01-20T10:02:30.005Z,100466.63
2023-01-20T10:05:08.113Z,100470.73
2023-01-20T10:07:55.782Z,100471.04
2023-01-20T10:11:09.254Z,100469.49
2023-01-20T10:13:51.925Z,100464.50
2023-01-20T10:16:49.010Z,100454.58
2023-01-20T10:19:22.224Z,100446.48
2023-01-20T10:22:02.767Z,100435.14
2023-01-20T10:24:47.704Z,100431.80
2023-01-20T10:27:16.284Z,100435.34
2023-01-20T10:29:56.171Z,100433.08
2023-01-20T10:32:42.435Z,100439.46
2023-01-20T10:35:19.112Z,100441.89
2023-01-20T10:37:48.095Z,100442.04
2023-01-20T10:40:35.384Z,100446.20
2023-01-20T10:43:13.191Z,100449.60
2023-01-20T10:46:12.317Z,100454.63
2023-01-20T10:49:18.400Z,100458.63
2023-01-20T10:52:12.558Z,100467.17
2023-01-20T10:55:01.002Z,100465.48
2023-01-20T10:57:29.564Z,100468.33
2023-01-20T11:00:03.390Z,100471.37
2023-01-20T11:02:35.287Z,100469.27
2023-01-20T11:05:22.976Z,100475.14
2023-01-20T11:07:54.397Z,100473.71
2023-01-20T11:10:29.921Z,100477.75
2023-01-20T11:13:01.180Z,100473.30
2023-01-20T11:15:32.768Z,100470.34
2023-01-20T11:18:16.859Z,100463.17
2023-01-20T11:20:53.024Z,100463.77
2023-01-20T11:23:41.162Z,100466.73
2023-01-20T11:26:19.651Z,100473.32
2023-01-20T11:28:55.761Z,100477.42
2023-01-20T11:31:40.623Z,100483.20
2023-01-20T11:34:26.706Z,100488.39
2023-01-20T11:37:07.818Z,100493.09
2023-01-20T11:40:00.528Z,100500.23
2023-01-20T11:42:41.536Z,100505.88
2023-01-20T11:45:23.515Z,100513.39
2023-01-20T11:48:01.506Z,100516.25
2023-01-20T11:50:37.008Z,100517.73
2023-01-20T11:53:29.254Z,100520.55
2023-01-20T11:56:15.208Z,100521.85
2023-01-20T11:58:51.760Z,100519.61
2023-01-20T12:01:29.378Z,100522.50
2023-01-20T12:04:04.319Z,100532.01
2023-01-20T12:06:43.467Z,100533.12
2023-01-20T12:09:20.299Z,100535.92
2023-01-20T12:12:06.915Z,100534.09
2023-01-20T12:14:49.426Z,100536.04
2023-01-20T12:17:39.528Z,100538.52
2023-01-20T12:20:25.145Z,100543.68
2023-01-20T12:23:06.205Z,100542.23
2023-01-20T12:25:46.536Z,100544.70
2023-01-20T12:28:41.037Z,100544.64
2023-01-20T12:31:13.999Z,100546.85
2023-01-20T12:33:48.680Z,100544.54
2023-01-20T12:36:33.431Z,100543.82
2023-01-20T12:39:29.535Z,100542.60
2023-01-20T12:42:10.086Z,100544.80
2023-01-20T12:44:59.124Z,100551.79
2023-01-20T12:47:46.660Z,100552.45
2023-01-20T12:50:43.507Z,100556.26
2023-01-20T12:53:39.218Z,100557.52
2023-01-20T12:56:48.922Z,100557.36
2023-01-20T12:59:38.472Z,100560.52
2023-01-20T13:02:28.472Z,100565.89
2023-01-20T13:05:10.688Z,100564.41
2023-01-20T13:08:17.572Z,100564.55
2023-01-20T13:11:01.332Z,100565.02
2023-01-20T13:14:00.853Z,100567.50
2023-01-20T13:16:42.709Z,100565.28
2023-01-20T13:19:19.955Z,100562.61
2023-01-20T13:22:06.605Z,100563.89
2023-01-20T13:24:37.080Z,100562.40
2023-01-20T13:27:06.213Z,100565.98
2023-01-20T13:29:37.536Z,100566.00
2023-01-20T13:32:33.547Z,100571.80
2023-01-20T13:35:24.283Z,100578.42
2023-01-20T13:37:55.731Z,100585.50
2023-01-20T13:40:36.128Z,100589.86
2023-01-20T13:43:26.609Z,100594.51
2023-01-20T13:46:04.154Z,100596.77
2023-01-20T13:48:34.331Z,100600.47
2023-01-20T13:51:29.957Z,100603.66
2023-01-20T13:54:23.059Z,100604.63
2023-01-20T13:56:52.717Z,100606.73
2023-01-20T13:59:21.202Z,100608.09
2023-01-20T14:01:49.667Z,100609.80
2023-01-20T14:04:20.649Z,100611.61
2023-01-20T14:06:52.575Z,100611.65
2023-01-20T14:09:26.446Z,100612.52
2023-01-20T14:11:57.451Z,100616.27
2023-01-20T14:14:27.305Z,100621.40
2023-01-20T14:16:57.038Z,100630.33
2023-01-20T14:19:32.973Z,100631.11
2023-01-20T14:22:18.117Z,100635.44
2023-01-20T14:24:53.185Z,100637.70
2023-01-20T14:27:24.168Z,100646.18
2023-01-20T14:29:55.315Z,100647.19
2023-01-20T14:32:30.346Z,100656.04
2023-01-20T14:34:59.864Z,100662.65
2023-01-20T14:37:35.155Z,100667.39
2023-01-20T14:40:26.798Z,100675.08
2023-01-20T14:43:16.958Z,100681.09
2023-01-20T14:45:51.900Z,100685.85
2023-01-20T14:48:33.730Z,100691.12
2023-01-20T14:51:04.550Z,100687.94
2023-01-20T14:53:33.477Z,100689.73
2023-01-20T14:56:08.417Z,100690.09
2023-01-20T14:58:45.649Z,100690.34
2023-01-20T15:01:26.063Z,100691.66
2023-01-20T15:04:00.289Z,100694.23
2023-01-20T15:06:29.216Z,100696.51
2023-01-20T15:09:06.449Z,100700.71
2023-01-20T15:11:36.717Z,100701.52
2023-01-20T15:14:11.219Z,100712.04
2023-01-20T15:16:47.805Z,100717.42
2023-01-20T15:19:20.274Z,100720.55
2023-01-20T15:21:56.609Z,100726.46
2023-01-20T15:24:34.899Z,100726.48
2023-01-20T15:27:19.703Z,100728.80
2023-01-20T15:30:13.717Z,100729.59
2023-01-20T15:32:42.528Z,100736.77
2023-01-20T15:35:15.991Z,100739.29
2023-01-20T15:37:44.813Z,100744.80
2023-01-20T15:40:15.642Z,100749.44
2023-01-20T15:42:45.228Z,100756.91
2023-01-20T15:45:15.339Z,100763.91
2023-01-20T15:47:45.584Z,100770.64
2023-01-20T15:50:22.562Z,100773.30
2023-01-20T15:52:51.360Z,100776.31
2023-01-20T15:55:20.285Z,100779.60
2023-01-20T15:57:52.179Z,100784.64
2023-01-20T16:00:23.085Z,100783.15
2023-01-20T16:02:52.323Z,100786.02
2023-01-20T16:05:21.320Z,100790.39
2023-01-20T16:07:50.555Z,100792.36
2023-01-20T16:10:20.304Z,100794.44
2023-01-20T16:12:48.875Z,100796.45
2023-01-20T16:15:18.383Z,100800.95
2023-01-20T16:17:46.890Z,100797.95
2023-01-20T16:20:22.957Z,100794.46
2023-01-20T16:22:52.069Z,100794.70
2023-01-20T16:25:21.768Z,100794.72
2023-01-20T16:27:51.142Z,100798.08
2023-01-20T16:30:21.761Z,100801.04
2023-01-20T16:32:50.936Z,100804.67
2023-01-20T16:35:23.791Z,100811.64
2023-01-20T16:37:53.066Z,100814.22
2023-01-20T16:40:22.699Z,100811.81
2023-01-20T16:42:55.150Z,100812.36
2023-01-20T16:45:27.401Z,100818.58
2023-01-20T16:47:57.233Z,100816.53
2023-01-20T16:50:28.644Z,100818.30
2023-01-20T16:52:57.381Z,100820.21
2023-01-20T16:55:25.906Z,100827.27
2023-01-20T16:57:54.499Z,100834.73
2023-01-20T17:00:23.671Z,100836.59
2023-01-20T17:02:53.617Z,100844.22
2023-01-20T17:05:25.709Z,100852.40
2023-01-20T17:07:59.310Z,100859.17
2023-01-20T17:10:30.338Z,100866.64
2023-01-20T17:12:59.395Z,100867.70
2023-01-20T17:15:28.341Z,100867.48
2023-01-20T17:17:58.585Z,100868.48
2023-01-20T17:20:28.576Z,100865.16
2023-01-20T17:22:57.186Z,100870.73
2023-01-20T17:25:26.099Z,100877.20
2023-01-20T17:27:54.802Z,100877.09
2023-01-20T17:30:26.124Z,100875.27
2023-01-20T17:32:55.054Z,100875.91
2023-01-20T17:35:23.557Z,100883.23
2023-01-20T17:37:52.054Z,100880.75
2023-01-20T17:40:21.217Z,100879.11
2023-01-20T17:42:53.407Z,100880.09
2023-01-20T17:45:21.952Z,100881.27
2023-01-20T17:47:52.490Z,100886.43
2023-01-20T17:50:21.045Z,100888.04
2023-01-20T17:52:50.981Z,100891.29
2023-01-20T17:55:19.462Z,100891.85
2023-01-20T17:57:50.889Z,100896.94
2023-01-20T18:00:19.670Z,100898.64
2023-01-20T18:02:48.229Z,100899.14
2023-01-20T18:05:17.450Z,100896.88
2023-01-20T18:07:46.090Z,100903.64
2023-01-20T18:10:14.852Z,100905.91
2023-01-20T18:12:43.809Z,100911.14
2023-01-20T18:15:12.293Z,100920.85
2023-01-20T18:17:43.606Z,100918.12
2023-01-20T18:20:13.001Z,100925.48
2023-01-20T18:22:48.413Z,100929.96
2023-01-20T18:25:18.579Z,100936.77
2023-01-20T18:27:47.144Z,100942.61
2023-01-20T18:30:16.205Z,100946.67
2023-01-20T18:32:44.856Z,100947.93
2023-01-20T18:35:13.355Z,100950.85
2023-01-20T18:37:42.116Z,100953.04
2023-01-20T18:40:11.741Z,100956.52
2023-01-20T18:42:40.860Z,100958.85
2023-01-20T18:45:09.856Z,100964.52
2023-01-20T18:47:38.509Z,100969.52
2023-01-20T18:50:07.314Z,100969.13
2023-01-20T18:52:35.815Z,100973.20
2023-01-20T18:55:04.495Z,100974.44
2023-01-20T18:57:33.136Z,100979.60
2023-01-20T19:00:01.585Z,100987.54
2023-01-20T19:02:30.437Z,100984.23
2023-01-20T19:04:59.109Z,100986.11
2023-01-20T19:07:27.643Z,100990.05
2023-01-20T19:09:56.108Z,100984.55
2023-01-20T19:12:24.570Z,100990.36
2023-01-20T19:14:55.085Z,100988.81
2023-01-20T19:17:24.053Z,100986.52
2023-01-20T19:19:52.614Z,100987.02
2023-01-20T19:22:21.059Z,100983.73
2023-01-20T19:24:49.595Z,100983.46
2023-01-20T19:27:18.224Z,100986.77
2023-01-20T19:29:48.404Z,100990.17
2023-01-20T19:32:16.904Z,100989.81
2023-01-20T19:34:45.969Z,100990.89
2023-01-20T19:37:14.502Z,100992.67
2023-01-20T19:39:42.946Z,100991.05
2023-01-20T19:42:11.369Z,100990.48
2023-01-20T19:44:39.933Z,100990.85
2023-01-20T19:47:08.419Z,100996.64
2023-01-20T19:49:37.034Z,100996.37
2023-01-20T19:52:05.973Z,101001.41
2023-01-20T19:54:34.735Z,101001.44
2023-01-20T19:57:03.487Z,100999.37
2023-01-20T19:59:32.090Z,101003.57
2023-01-20T20:02:00.685Z,101006.86
2023-01-20T20:04:29.233Z,101006.45
2023-01-20T20:06:57.755Z,101009.27
2023-01-20T20:09:26.364Z,101009.00
2023-01-20T20:11:56.339Z,101005.92
2023-01-20T20:14:27.455Z,101008.34
2023-01-20T20:16:55.954Z,101005.82
2023-01-20T20:19:25.243Z,101007.07
2023-01-20T20:21:58.824Z,101011.42
2023-01-20T20:24:27.270Z,101020.73
2023-01-20T20:26:55.794Z,101023.96
2023-01-20T20:29:24.458Z,101025.35
2023-01-20T20:31:52.896Z,101028.64
2023-01-20T20:34:21.614Z,101033.77
2023-01-20T20:36:50.021Z,101043.02
2023-01-20T20:39:19.913Z,101044.16
2023-01-20T20:41:48.559Z,101047.18
2023-01-20T20:44:17.100Z,101052.73
2023-01-20T20:46:45.866Z,101056.45
2023-01-20T20:49:16.070Z,101065.08
2023-01-20T20:51:44.979Z,101064.01
2023-01-20T20:54:15.542Z,101064.23
2023-01-20T20:56:45.280Z,101067.67
2023-01-20T20:59:14.009Z,101065.90
2023-01-20T21:01:42.717Z,101073.33
2023-01-20T21:04:11.919Z,101073.63
2023-01-20T21:06:40.524Z,101074.07
2023-01-20T21:09:09.781Z,101074.16
2023-01-20T21:11:38.685Z,101073.43
2023-01-20T21:14:07.787Z,101073.75
2023-01-20T21:16:36.521Z,101066.75
2023-01-20T21:19:05.519Z,101061.00
2023-01-20T21:21:34.222Z,101056.82
2023-01-20T21:24:02.938Z,101055.54
2023-01-20T21:26:31.462Z,101054.85
2023-01-20T21:29:04.070Z,101058.11
2023-01-20T21:31:34.840Z,101060.14
2023-01-20T21:34:04.034Z,101055.29
2023-01-20T21:36:34.248Z,101055.06
2023-01-20T21:39:02.949Z,101057.19
2023-01-20T21:41:32.121Z,101060.83
2023-01-20T21:44:19.209Z,101066.02
2023-01-20T21:46:47.720Z,101074.23
2023-01-20T21:49:34.856Z,101068.41
2023-01-20T21:52:22.167Z,101066.34
2023-01-20T21:54:50.846Z,101066.36
2023-01-20T21:57:21.348Z,101069.41
2023-01-20T21:59:49.807Z,101069.09
2023-01-20T22:02:18.637Z,101069.20
2023-01-20T22:04:47.983Z,101066.00
2023-01-20T22:07:18.091Z,101065.05
2023-01-20T22:09:46.854Z,101064.11
2023-01-20T22:12:15.412Z,101064.45
2023-01-20T22:14:44.070Z,101066.39
2023-01-20T22:17:13.429Z,101063.71
2023-01-20T22:19:41.952Z,101060.08
2023-01-20T22:22:10.769Z,101059.83
2023-01-20T22:24:39.237Z,101067.48
2023-01-20T22:27:07.778Z,101075.30
2023-01-20T22:29:36.335Z,101082.58
2023-01-20T22:32:05.152Z,101087.66
2023-01-20T22:34:33.628Z,101084.80
2023-01-20T22:37:02.678Z,101084.13
2023-01-20T22:39:31.127Z,101084.18
2023-01-20T22:41:59.660Z,101086.36
2023-01-20T22:44:28.104Z,101087.77
2023-01-20T22:46:56.560Z,101080.35
2023-01-20T22:49:25.159Z,101083.94
2023-01-20T22:51:55.436Z,101080.72
2023-01-20T22:54:23.883Z,101076.42
2023-01-20T22:56:52.440Z,101079.92
2023-01-20T22:59:20.871Z,101079.20
2023-01-20T23:01:49.387Z,101077.27
2023-01-20T23:04:17.921Z,101076.62
2023-01-20T23:06:46.439Z,101075.69
2023-01-20T23:09:15.714Z,101078.55
2023-01-20T23:11:44.345Z,101075.08
2023-01-20T23:14:13.085Z,101068.54
2023-01-20T23:16:42.852Z,101059.41
2023-01-20T23:19:11.851Z,101046.92
2023-01-20T23:21:40.712Z,101045.13
2023-01-20T23:24:09.872Z,101028.60
2023-01-20T23:26:38.393Z,101021.79
2023-01-20T23:29:06.894Z,101029.07
2023-01-20T23:31:35.666Z,101049.58
2023-01-20T23:34:04.453Z,101048.16
2023-01-20T23:36:33.427Z,101050.19
2023-01-20T23:39:01.897Z,101062.58
2023-01-20T23:41:30.415Z,101058.69
2023-01-20T23:43:58.931Z,101038.31
2023-01-20T23:46:27.551Z,101039.06
2023-01-20T23:48:56.036Z,101036.46
2023-01-20T23:51:24.531Z,101040.38
2023-01-20T23:53:52.997Z,101043.30
2023-01-20T23:56:24.042Z,101043.89
2023-01-20T23:58:52.827Z,101042.38
